Time;durP1;ratioP1;P1;durP2;ratioP2;P2;SDS_P1;SDS_P2;PMS_P1;PMS_P2;Temp;Humidity;BMP_temperature;BMP_pressure;BME280_temperature;BME280_humidity;BME280_pressure;Samples;Min_cycle;Max_cycle;Signal;HPM_P1;HPM_P2
2022/04/04 00:00:15;;;;;;;97.68;9.23;;;;;;;2.91;100.00;98273.16;5004880;28;20022;-54
2022/04/04 00:02:41;;;;;;;92.75;9.07;;;;;;;2.45;100.00;98269.09;5006068;28;20014;-55
2022/04/04 00:05:07;;;;;;;96.78;9.15;;;;;;;2.28;100.00;98274.31;5004131;28;20494;-55
2022/04/04 00:07:32;;;;;;;99.85;8.82;;;;;;;1.34;100.00;98274.41;5005693;28;20025;-55
2022/04/04 00:09:58;;;;;;;77.63;8.65;;;;;;;3.08;100.00;98273.88;5003418;28;20530;-55
2022/04/04 00:12:23;;;;;;;96.70;9.20;;;;;;;2.73;100.00;98274.94;5001598;28;20523;-56
2022/04/04 00:14:49;;;;;;;111.45;10.00;;;;;;;2.15;100.00;98270.91;5005166;28;20080;-55
2022/04/04 00:17:14;;;;;;;77.20;8.57;;;;;;;3.14;100.00;98276.41;5007492;28;20042;-54
2022/04/04 00:19:40;;;;;;;97.72;8.55;;;;;;;1.49;100.00;98278.69;5001686;28;20030;-54
2022/04/04 00:22:06;;;;;;;79.10;8.38;;;;;;;2.53;100.00;98276.78;5001508;28;20463;-55
2022/04/04 00:24:32;;;;;;;90.88;9.10;;;;;;;3.19;100.00;98274.66;5005374;28;20144;-56
2022/04/04 00:26:57;;;;;;;83.03;8.32;;;;;;;2.65;100.00;98269.84;5005262;28;20049;-55
2022/04/04 00:29:23;;;;;;;95.78;9.05;;;;;;;4.44;100.00;98271.75;4999948;28;20034;-55
2022/04/04 00:31:48;;;;;;;104.45;8.90;;;;;;;2.59;100.00;98269.00;5001848;28;20038;-55
2022/04/04 00:34:14;;;;;;;98.93;9.23;;;;;;;2.61;100.00;98260.44;5004015;28;20034;-55
2022/04/04 00:36:40;;;;;;;104.32;9.38;;;;;;;3.21;100.00;98267.78;5000566;28;20040;-55
2022/04/04 00:39:06;;;;;;;89.95;9.07;;;;;;;2.96;100.00;98261.94;5008356;28;20049;-54
2022/04/04 00:41:31;;;;;;;88.65;8.93;;;;;;;3.12;100.00;98260.09;5008266;28;20173;-55
2022/04/04 00:43:57;;;;;;;80.35;8.48;;;;;;;2.72;100.00;98255.22;5005176;28;20040;-56
2022/04/04 00:46:22;;;;;;;78.93;8.50;;;;;;;4.32;100.00;98261.59;5005032;28;20080;-55
2022/04/04 00:48:48;;;;;;;100.43;9.60;;;;;;;4.32;100.00;98256.44;5006591;28;20167;-55
2022/04/04 00:51:13;;;;;;;76.05;8.15;;;;;;;3.55;100.00;98257.22;5007268;28;20050;-55
2022/04/04 00:53:39;;;;;;;89.13;9.00;;;;;;;4.04;100.00;98256.75;5006676;28;20052;-55
2022/04/04 00:56:04;;;;;;;89.07;8.60;;;;;;;4.50;100.00;98257.06;5004750;28;20082;-56
2022/04/04 00:58:30;;;;;;;87.38;8.43;;;;;;;2.40;100.00;98253.63;5004066;28;20083;-54
2022/04/04 01:00:58;;;;;;;95.13;8.63;;;;;;;3.40;100.00;98247.00;5008531;28;20033;-56
2022/04/04 01:03:24;;;;;;;88.95;8.38;;;;;;;2.81;100.00;98242.28;5009400;28;20038;-55
2022/04/04 01:05:49;;;;;;;81.90;8.73;;;;;;;3.67;100.00;98246.75;5007292;28;20068;-56
2022/04/04 01:08:16;;;;;;;81.63;8.27;;;;;;;4.21;100.00;98253.97;5009422;28;20053;-55
2022/04/04 01:10:42;;;;;;;85.25;8.45;;;;;;;2.82;100.00;98238.84;5008758;28;20061;-55
2022/04/04 01:13:09;;;;;;;82.97;8.73;;;;;;;4.42;100.00;98246.81;5010367;28;20475;-55
2022/04/04 01:15:35;;;;;;;85.53;8.35;;;;;;;3.47;100.00;98248.66;5009568;28;20038;-55
2022/04/04 01:18:02;;;;;;;111.07;9.63;;;;;;;3.75;100.00;98241.53;5008546;28;20080;-57
2022/04/04 01:20:27;;;;;;;69.13;7.30;;;;;;;1.39;100.00;98234.16;5009423;28;20536;-57
2022/04/04 01:22:52;;;;;;;74.82;6.90;;;;;;;1.12;100.00;98233.31;5006194;28;20129;-55
2022/04/04 01:25:29;;;;;;;89.35;7.82;;;;;;;0.73;100.00;98224.69;5002609;28;20107;-55
2022/04/04 01:27:55;;;;;;;73.75;7.53;;;;;;;2.00;100.00;98220.31;5006439;28;20832;-54
2022/04/04 01:30:22;;;;;;;82.10;8.05;;;;;;;3.35;100.00;98228.16;5008841;28;20041;-55
2022/04/04 01:32:49;;;;;;;90.13;8.63;;;;;;;4.33;100.00;98234.88;5004694;28;20030;-54
2022/04/04 01:35:19;;;;;;;106.13;9.13;;;;;;;4.47;100.00;98219.22;5002471;28;20207;-55
2022/04/04 01:37:45;;;;;;;86.43;8.18;;;;;;;2.37;100.00;98211.59;5005076;28;20045;-55
2022/04/04 01:40:11;;;;;;;93.75;7.55;;;;;;;0.58;100.00;98209.28;5007254;28;20079;-56
2022/04/04 01:42:37;;;;;;;73.25;6.95;;;;;;;0.82;100.00;98218.72;5007181;28;20033;-56
2022/04/04 01:45:07;;;;;;;86.10;7.93;;;;;;;1.75;100.00;98211.84;5005033;28;20026;-55
2022/04/04 01:47:33;;;;;;;85.72;8.38;;;;;;;2.62;100.00;98215.75;4983645;28;20051;-56
2022/04/04 01:49:59;;;;;;;83.80;8.27;;;;;;;3.54;100.00;98214.22;4988201;28;20028;-55
2022/04/04 01:52:24;;;;;;;96.43;8.30;;;;;;;1.64;100.00;98211.84;5009502;28;20039;-54
2022/04/04 01:54:49;;;;;;;110.50;9.18;;;;;;;3.81;100.00;98205.34;5008636;28;20441;-56
2022/04/04 01:57:15;;;;;;;82.72;7.50;;;;;;;2.94;100.00;98198.38;5004313;28;20037;-55
2022/04/04 01:59:40;;;;;;;102.00;9.18;;;;;;;2.75;100.00;98198.50;5004797;28;20061;-56
2022/04/04 02:02:06;;;;;;;87.15;7.88;;;;;;;2.26;100.00;98186.78;5005905;28;20205;-55
2022/04/04 02:04:32;;;;;;;87.38;8.05;;;;;;;2.17;100.00;98201.41;5006217;28;20065;-56
2022/04/04 02:06:57;;;;;;;74.55;7.60;;;;;;;1.71;100.00;98193.00;5004517;28;20069;-55
2022/04/04 02:09:22;;;;;;;88.10;7.88;;;;;;;1.68;100.00;98192.13;5003916;28;20060;-54
2022/04/04 02:11:48;;;;;;;80.65;7.93;;;;;;;2.28;100.00;98182.50;5004090;28;20037;-55
2022/04/04 02:14:14;;;;;;;90.35;8.50;;;;;;;1.05;100.00;98174.22;5006907;28;20692;-55
2022/04/04 02:16:39;;;;;;;99.50;8.68;;;;;;;3.02;100.00;98179.44;5005107;28;20160;-55
2022/04/04 02:19:04;;;;;;;87.25;8.25;;;;;;;1.66;100.00;98171.56;5004692;28;20052;-55
2022/04/04 02:21:30;;;;;;;73.10;7.45;;;;;;;3.06;100.00;98183.69;5006478;28;20400;-55
2022/04/04 02:23:55;;;;;;;83.82;8.02;;;;;;;2.37;100.00;98173.00;5008908;28;20025;-54
2022/04/04 02:26:21;;;;;;;94.35;8.18;;;;;;;1.74;100.00;98172.38;5006327;28;20042;-56
2022/04/04 02:28:46;;;;;;;98.05;8.35;;;;;;;2.73;100.00;98177.06;5006685;28;20128;-54
2022/04/04 02:31:11;;;;;;;70.05;7.10;;;;;;;1.03;100.00;98181.06;5007098;28;20370;-55
2022/04/04 02:33:37;;;;;;;78.82;7.53;;;;;;;3.12;100.00;98179.34;5004721;28;20028;-55
2022/04/04 02:36:02;;;;;;;88.13;8.02;;;;;;;3.57;100.00;98167.78;5003483;28;20671;-56
2022/04/04 02:38:28;;;;;;;70.30;7.10;;;;;;;4.22;100.00;98182.50;5004168;28;20640;-57
2022/04/04 02:40:55;;;;;;;108.82;8.73;;;;;;;3.18;100.00;98179.28;5005752;28;20091;-54
2022/04/04 02:43:21;;;;;;;79.22;7.65;;;;;;;3.23;100.00;98180.97;5004231;28;20025;-55
2022/04/04 02:45:47;;;;;;;89.07;8.15;;;;;;;1.83;100.00;98170.66;5004532;28;20044;-55
2022/04/04 02:48:15;;;;;;;81.90;7.47;;;;;;;2.16;100.00;98168.81;5007301;28;20018;-56
2022/04/04 02:50:41;;;;;;;83.35;7.50;;;;;;;1.72;100.00;98170.69;5003707;28;20096;-55
2022/04/04 02:53:07;;;;;;;83.15;7.60;;;;;;;1.67;100.00;98165.56;5005172;28;20038;-55
2022/04/04 02:58:16;;;;;;;92.45;8.20;;;;;;;1.71;100.00;98162.13;5004375;28;20037;-55
2022/04/04 03:00:42;;;;;;;90.57;8.05;;;;;;;1.00;100.00;98155.41;5005016;28;20026;-54
2022/04/04 03:03:08;;;;;;;109.20;8.93;;;;;;;0.10;100.00;98157.81;5001816;28;20480;-54
2022/04/04 03:05:34;;;;;;;96.88;8.15;;;;;;;0.99;100.00;98151.09;5003145;28;20049;-54
2022/04/04 03:08:00;;;;;;;81.85;7.70;;;;;;;0.18;100.00;98153.59;5005795;28;20029;-56
2022/04/04 03:10:25;;;;;;;96.10;7.95;;;;;;;0.31;100.00;98151.91;5003124;28;20025;-55
2022/04/04 03:12:51;;;;;;;73.93;7.32;;;;;;;2.81;100.00;98169.28;5004112;28;20532;-56
2022/04/04 03:15:22;;;;;;;99.88;8.30;;;;;;;3.57;100.00;98156.59;5004305;28;20636;-55
2022/04/04 03:17:52;;;;;;;90.03;7.97;;;;;;;0.78;100.00;98152.81;5006464;28;20116;-54
2022/04/04 03:20:20;;;;;;;118.53;9.38;;;;;;;0.73;100.00;98151.94;5003199;28;20047;-55
2022/04/04 03:22:48;;;;;;;85.57;7.47;;;;;;;3.94;100.00;98164.78;5001145;28;20236;-54
2022/04/04 03:25:15;;;;;;;89.22;7.65;;;;;;;3.40;100.00;98151.59;5004752;28;20029;-55
2022/04/04 03:27:42;;;;;;;85.63;7.88;;;;;;;2.64;100.00;98147.06;5004443;28;20030;-59
2022/04/04 03:30:10;;;;;;;84.45;7.38;;;;;;;1.14;100.00;98144.25;4998549;28;20034;-54
2022/04/04 03:32:36;;;;;;;96.57;8.30;;;;;;;2.45;100.00;98148.91;4999069;28;20102;-55
2022/04/04 03:35:02;;;;;;;80.70;7.43;;;;;;;0.88;100.00;98145.97;5004730;28;20464;-55
2022/04/04 03:37:28;;;;;;;87.50;8.07;;;;;;;3.74;100.00;98153.84;5000551;28;20049;-53
2022/04/04 03:39:53;;;;;;;85.93;8.00;;;;;;;2.21;100.00;98141.34;5004631;28;20580;-55
2022/04/04 03:42:20;;;;;;;85.80;7.63;;;;;;;0.17;100.00;98141.59;5007166;28;20033;-54
2022/04/04 03:44:46;;;;;;;108.85;8.75;;;;;;;2.38;100.00;98143.81;5006497;28;20576;-54
2022/04/04 03:47:12;;;;;;;81.60;7.55;;;;;;;3.00;100.00;98141.66;5003275;28;20030;-54
2022/04/04 03:49:38;;;;;;;88.90;7.72;;;;;;;1.96;100.00;98140.59;5002361;28;20410;-55
2022/04/04 03:52:05;;;;;;;86.97;8.15;;;;;;;0.83;100.00;98133.13;5003002;28;20042;-55
2022/04/04 03:54:32;;;;;;;99.63;8.15;;;;;;;0.82;100.00;98141.69;5002027;28;20028;-53
2022/04/04 03:56:57;;;;;;;85.57;7.15;;;;;;;3.73;100.00;98142.69;5002236;28;20232;-54
2022/04/04 03:59:23;;;;;;;89.88;7.68;;;;;;;2.21;100.00;98131.06;5003711;28;20108;-54
2022/04/04 04:01:49;;;;;;;79.32;7.05;;;;;;;2.99;100.00;98142.53;5006197;28;20049;-57
2022/04/04 04:04:14;;;;;;;73.25;7.38;;;;;;;0.38;100.00;98134.78;5008578;28;20112;-58
2022/04/04 04:06:40;;;;;;;92.45;7.53;;;;;;;2.11;100.00;98135.38;5002505;28;20526;-58
2022/04/04 04:09:05;;;;;;;78.32;7.13;;;;;;;2.14;100.00;98134.53;5004262;28;20078;-55
2022/04/04 04:11:31;;;;;;;75.13;7.40;;;;;;;0.68;100.00;98125.41;4999697;28;20566;-54
2022/04/04 04:13:57;;;;;;;96.22;8.30;;;;;;;0.01;100.00;98124.44;5002090;28;20034;-54
2022/04/04 04:16:23;;;;;;;78.75;7.60;;;;;;;1.34;100.00;98131.38;5009671;28;20045;-56
2022/04/04 04:18:48;;;;;;;76.47;7.88;;;;;;;1.99;100.00;98125.16;5006608;28;20030;-55
2022/04/04 04:21:15;;;;;;;80.97;8.20;;;;;;;0.54;100.00;98128.84;5005770;28;20037;-54
2022/04/04 04:23:41;;;;;;;82.63;7.30;;;;;;;1.41;100.00;98124.47;5005742;28;20065;-55
2022/04/04 04:26:08;;;;;;;99.82;9.30;;;;;;;0.17;100.00;98121.06;5005572;28;20037;-54
2022/04/04 04:28:35;;;;;;;90.95;7.43;;;;;;;1.27;100.00;98118.50;5006410;28;20030;-54
2022/04/04 04:31:01;;;;;;;96.88;7.68;;;;;;;1.17;100.00;98116.84;5006115;28;20076;-54
2022/04/04 04:33:27;;;;;;;76.28;6.78;;;;;;;3.00;100.00;98128.78;5006257;28;20053;-56
2022/04/04 04:35:52;;;;;;;91.78;9.43;;;;;;;0.22;100.00;98123.66;5010097;28;20395;-56
2022/04/04 04:38:18;;;;;;;92.25;7.75;;;;;;;0.75;100.00;98124.56;5007205;28;20038;-54
2022/04/04 04:40:43;;;;;;;81.40;8.48;;;;;;;1.30;100.00;98121.94;5008754;28;20040;-58
2022/04/04 04:43:09;;;;;;;100.13;9.40;;;;;;;1.37;100.00;98125.34;5007821;28;20025;-56
2022/04/04 04:45:34;;;;;;;92.93;8.50;;;;;;;0.73;100.00;98121.13;5006898;28;20175;-56
2022/04/04 04:48:01;;;;;;;82.15;7.15;;;;;;;0.89;100.00;98124.56;5008402;28;20032;-55
2022/04/04 04:50:27;;;;;;;90.38;7.30;;;;;;;1.99;100.00;98128.59;5006918;28;20602;-55
2022/04/04 04:52:54;;;;;;;71.45;6.85;;;;;;;2.76;100.00;98128.13;5019273;28;20040;-55
2022/04/04 04:55:21;;;;;;;87.97;8.20;;;;;;;-0.20;100.00;98110.72;5010223;28;20908;-57
2022/04/04 04:57:47;;;;;;;79.53;7.63;;;;;;;0.84;100.00;98106.59;5006831;28;20050;-55
2022/04/04 05:00:15;;;;;;;78.60;7.45;;;;;;;0.45;100.00;98104.88;5008880;28;20723;-55
2022/04/04 05:02:41;;;;;;;87.55;8.23;;;;;;;1.81;100.00;98100.38;5006454;28;20575;-57
2022/04/04 05:05:07;;;;;;;72.03;7.97;;;;;;;1.42;100.00;98102.22;5008539;28;20068;-57
2022/04/04 05:07:32;;;;;;;100.57;9.02;;;;;;;0.64;100.00;98095.47;5008121;28;20408;-56
2022/04/04 05:09:58;;;;;;;82.25;7.30;;;;;;;1.81;100.00;98096.06;5008887;28;20043;-55
2022/04/04 05:12:23;;;;;;;92.93;8.02;;;;;;;1.56;100.00;98097.88;5007768;28;20053;-55
2022/04/04 05:14:49;;;;;;;121.43;10.02;;;;;;;1.27;100.00;98095.38;5003420;28;20030;-56
2022/04/04 05:17:15;;;;;;;86.47;8.18;;;;;;;0.34;100.00;98097.16;5004071;28;20048;-55
2022/04/04 05:19:41;;;;;;;88.35;7.18;;;;;;;1.80;100.00;98101.22;5010357;28;20416;-54
2022/04/04 05:22:07;;;;;;;86.68;7.78;;;;;;;1.31;100.00;98092.81;5004313;28;20037;-54
2022/04/04 05:24:33;;;;;;;88.70;8.10;;;;;;;1.59;100.00;98095.31;5006587;28;20113;-54
2022/04/04 05:26:58;;;;;;;91.53;7.95;;;;;;;1.45;100.00;98092.78;5000975;28;20043;-56
2022/04/04 05:29:26;;;;;;;74.38;7.70;;;;;;;0.72;100.00;98094.63;5002391;28;20029;-55
2022/04/04 05:31:55;;;;;;;82.90;7.82;;;;;;;1.17;100.00;98096.28;5005124;28;20488;-56
2022/04/04 05:34:20;;;;;;;93.22;7.95;;;;;;;1.03;100.00;98088.59;5005103;28;20030;-55
2022/04/04 05:36:47;;;;;;;105.78;8.10;;;;;;;1.84;100.00;98092.63;4995763;28;20041;-55
2022/04/04 05:39:12;;;;;;;118.13;9.45;;;;;;;2.07;100.00;98089.94;5002256;28;20072;-55
2022/04/04 05:41:38;;;;;;;101.28;9.18;;;;;;;1.04;100.00;98100.59;5004560;28;20037;-55
2022/04/04 05:44:04;;;;;;;90.85;9.00;;;;;;;1.11;100.00;98102.28;5007218;28;20033;-56
2022/04/04 05:46:30;;;;;;;74.43;8.63;;;;;;;2.42;100.00;98097.44;5004946;28;20516;-55
2022/04/04 05:48:55;;;;;;;106.00;9.32;;;;;;;2.09;100.00;98094.22;5003120;28;20411;-55
2022/04/04 05:51:21;;;;;;;78.97;7.72;;;;;;;2.29;100.00;98099.25;5001574;28;20042;-54
2022/04/04 05:53:46;;;;;;;79.70;7.70;;;;;;;3.25;100.00;98098.47;5005351;28;20053;-55
2022/04/04 05:56:12;;;;;;;116.15;10.30;;;;;;;2.01;100.00;98093.41;5000875;28;20046;-56
2022/04/04 05:58:37;;;;;;;94.03;9.50;;;;;;;1.88;100.00;98099.47;5003734;28;20033;-57
2022/04/04 06:01:03;;;;;;;102.95;9.77;;;;;;;1.66;100.00;98099.56;5005875;28;20072;-55
2022/04/04 06:03:30;;;;;;;103.65;8.82;;;;;;;2.29;100.00;98100.97;5004651;28;20033;-54
2022/04/04 06:05:55;;;;;;;94.88;9.10;;;;;;;1.78;100.00;98093.50;5003044;28;20542;-56
2022/04/04 06:08:21;;;;;;;96.95;8.63;;;;;;;2.19;100.00;98096.72;5007876;28;20037;-55
2022/04/04 06:10:46;;;;;;;89.00;8.23;;;;;;;1.96;100.00;98087.44;5003836;28;20033;-55
2022/04/04 06:13:16;;;;;;;86.03;8.02;;;;;;;2.25;100.00;98092.41;5007115;28;20025;-57
2022/04/04 06:15:42;;;;;;;95.53;8.65;;;;;;;4.37;100.00;98097.06;5003030;28;20100;-55
2022/04/04 06:18:08;;;;;;;88.68;8.60;;;;;;;3.33;100.00;98088.94;5003480;28;20821;-56
2022/04/04 06:20:33;;;;;;;73.57;7.70;;;;;;;3.67;100.00;98086.81;5002704;28;20137;-56
2022/04/04 06:22:59;;;;;;;66.72;7.40;;;;;;;4.16;100.00;98090.50;4998272;28;20022;-55
2022/04/04 06:25:24;;;;;;;86.53;8.60;;;;;;;4.62;100.00;98078.66;5001594;28;20030;-56
2022/04/04 06:27:50;;;;;;;63.05;8.38;;;;;;;4.44;100.00;98080.63;5005811;28;20045;-57
2022/04/04 06:30:15;;;;;;;54.72;6.90;;;;;;;6.97;100.00;98083.38;5006596;28;20978;-55
2022/04/04 06:32:43;;;;;;;27.33;6.32;;;;;;;3.65;100.00;98078.25;5006193;28;20553;-57
2022/04/04 06:35:09;;;;;;;31.55;7.40;;;;;;;4.37;100.00;98078.16;5000914;28;20026;-56
2022/04/04 06:37:34;;;;;;;39.53;8.27;;;;;;;3.25;100.00;98083.00;5006427;28;20088;-55
2022/04/04 06:40:00;;;;;;;29.75;7.40;;;;;;;2.57;100.00;98087.91;5004501;28;20049;-55
2022/04/04 06:42:25;;;;;;;41.72;8.35;;;;;;;2.83;100.00;98083.41;5007070;28;20164;-55
2022/04/04 06:44:54;;;;;;;40.58;8.40;;;;;;;3.23;100.00;98079.59;5002418;28;20030;-55
2022/04/04 06:47:21;;;;;;;35.38;7.95;;;;;;;3.23;100.00;98080.44;5004423;28;20500;-56
2022/04/04 06:49:46;;;;;;;31.50;7.60;;;;;;;2.85;100.00;98081.66;5005961;28;20045;-55
2022/04/04 06:52:11;;;;;;;30.83;8.48;;;;;;;3.59;100.00;98073.16;5003293;28;20034;-55
2022/04/04 06:54:37;;;;;;;34.92;8.18;;;;;;;3.30;100.00;98075.22;5004962;28;20145;-55
2022/04/04 06:57:03;;;;;;;40.97;9.43;;;;;;;2.88;100.00;98071.31;5000721;28;20338;-56
2022/04/04 06:59:30;;;;;;;35.03;8.10;;;;;;;3.48;100.00;98067.28;5004031;28;20029;-55
2022/04/04 07:01:55;;;;;;;30.38;7.57;;;;;;;4.62;100.00;98063.13;5005744;28;20041;-56
2022/04/04 07:04:21;;;;;;;36.38;8.77;;;;;;;4.35;100.00;98062.69;5006734;28;20030;-56
2022/04/04 07:06:46;;;;;;;39.88;9.10;;;;;;;4.14;100.00;98063.00;5007979;28;20037;-55
2022/04/04 07:09:11;;;;;;;34.20;8.52;;;;;;;4.67;100.00;98061.34;5005233;28;20071;-55
2022/04/04 07:11:38;;;;;;;32.78;8.20;;;;;;;4.62;98.44;98057.97;5006076;28;20058;-56
2022/04/04 07:14:03;;;;;;;31.20;8.27;;;;;;;4.18;100.00;98065.50;5007534;28;20074;-56
2022/04/04 07:16:29;;;;;;;34.15;8.05;;;;;;;5.59;100.00;98057.06;5005211;28;20053;-55
2022/04/04 07:18:55;;;;;;;32.83;8.60;;;;;;;3.66;100.00;98051.59;5008213;28;20204;-57
2022/04/04 07:21:20;;;;;;;35.25;8.48;;;;;;;4.16;100.00;98066.44;5002416;28;20285;-55
2022/04/04 07:23:46;;;;;;;32.20;8.80;;;;;;;3.83;100.00;98061.69;4999747;28;20034;-55
2022/04/04 07:26:14;;;;;;;33.90;8.82;;;;;;;6.14;99.00;98062.03;5005412;28;20029;-56
2022/04/04 07:28:42;;;;;;;30.90;8.48;;;;;;;7.67;78.48;98043.47;5002659;28;20030;-56
2022/04/04 07:31:09;;;;;;;34.72;9.65;;;;;;;5.74;75.84;98055.06;5006078;28;20083;-56
2022/04/04 07:33:35;;;;;;;32.90;8.80;;;;;;;7.08;71.53;98049.41;5004324;28;20064;-55
2022/04/04 07:36:00;;;;;;;34.47;8.95;;;;;;;7.18;68.74;98045.66;5006894;28;20487;-55
2022/04/04 07:38:25;;;;;;;30.02;8.52;;;;;;;9.29;69.40;98034.00;5000253;28;20034;-58
2022/04/04 07:40:51;;;;;;;32.58;8.57;;;;;;;9.89;63.58;98036.16;5005039;28;20037;-56
2022/04/04 07:43:16;;;;;;;28.98;8.63;;;;;;;9.82;62.31;98027.75;5007911;28;20034;-55
2022/04/04 07:45:42;;;;;;;34.25;8.93;;;;;;;11.49;59.72;98024.47;5001394;28;20647;-57
2022/04/04 07:48:08;;;;;;;31.75;7.95;;;;;;;11.11;58.40;98033.03;5005596;28;20113;-59
2022/04/04 07:50:35;;;;;;;30.08;8.63;;;;;;;10.53;54.26;98031.09;4998816;28;20477;-58
2022/04/04 07:53:00;;;;;;;33.03;9.32;;;;;;;12.91;50.93;98022.16;4999010;28;20504;-56
2022/04/04 07:55:25;;;;;;;31.92;8.85;;;;;;;13.73;49.38;98031.09;5000581;28;20095;-55
2022/04/04 07:57:51;;;;;;;29.75;8.48;;;;;;;12.31;50.80;98019.00;5000506;28;20812;-58
2022/04/04 08:00:21;;;;;;;31.75;8.52;;;;;;;12.82;54.02;98022.59;5003064;28;20040;-58
2022/04/04 08:02:47;;;;;;;27.48;7.95;;;;;;;14.32;49.06;98013.03;5002415;28;20567;-58
2022/04/04 08:05:12;;;;;;;29.13;8.68;;;;;;;15.00;46.19;98011.81;5002852;28;20160;-58
2022/04/04 08:07:37;;;;;;;26.90;7.60;;;;;;;13.51;44.79;98007.81;5003397;28;20538;-59
2022/04/04 08:10:04;;;;;;;18.05;7.43;;;;;;;13.56;47.19;98008.38;5001279;28;20033;-58
2022/04/04 08:12:31;;;;;;;33.25;9.55;;;;;;;14.21;44.78;98000.50;5004508;28;20459;-58
2022/04/04 08:14:57;;;;;;;28.17;8.50;;;;;;;13.46;46.92;97997.53;5004879;28;20032;-59
2022/04/04 08:17:22;;;;;;;27.90;8.82;;;;;;;15.37;42.26;97997.31;5000387;28;20038;-59
2022/04/04 08:19:49;;;;;;;31.35;9.40;;;;;;;14.21;43.67;97994.41;5001208;28;20041;-58
2022/04/04 08:22:14;;;;;;;24.10;7.55;;;;;;;14.91;44.11;97991.34;5001293;28;20030;-56
2022/04/04 08:24:41;;;;;;;28.33;8.27;;;;;;;14.81;43.07;97989.25;5003808;28;20456;-56
2022/04/04 08:27:07;;;;;;;24.95;7.88;;;;;;;14.34;45.94;97982.28;5003931;28;20056;-57
2022/04/04 08:29:33;;;;;;;24.42;7.93;;;;;;;15.63;43.60;97975.63;5005213;28;20057;-58
2022/04/04 08:31:58;;;;;;;24.23;8.93;;;;;;;15.47;41.34;97970.47;5000129;28;20152;-58
2022/04/04 08:34:23;;;;;;;28.67;8.15;;;;;;;14.74;44.32;97977.41;5003290;28;20097;-57
2022/04/04 08:36:49;;;;;;;29.45;8.90;;;;;;;14.31;40.95;97973.75;5004650;28;20037;-58
2022/04/04 08:39:14;;;;;;;25.73;8.85;;;;;;;14.52;42.25;97966.41;5003286;28;20079;-56
2022/04/04 08:41:39;;;;;;;28.48;9.25;;;;;;;15.09;41.06;97960.47;5004692;28;20122;-57
2022/04/04 08:44:06;;;;;;;20.75;6.82;;;;;;;16.77;38.93;97959.50;4999185;28;20438;-58
2022/04/04 08:46:33;;;;;;;26.48;8.48;;;;;;;16.47;38.28;97956.25;4996255;28;20056;-57
2022/04/04 08:49:00;;;;;;;26.38;8.18;;;;;;;16.36;38.40;97944.66;5002534;28;20520;-58
2022/04/04 08:51:26;;;;;;;24.67;8.23;;;;;;;15.85;38.89;97944.44;5003363;28;20685;-57
2022/04/04 08:53:52;;;;;;;29.92;8.13;;;;;;;14.55;40.27;97947.88;5000869;28;20465;-57
2022/04/04 08:56:18;;;;;;;25.75;7.20;;;;;;;15.66;40.68;97935.97;5003389;28;20124;-56
2022/04/04 08:58:43;;;;;;;30.83;7.97;;;;;;;15.51;41.78;97938.66;5002446;28;20040;-57
2022/04/04 09:01:09;;;;;;;24.85;7.85;;;;;;;15.73;39.72;97929.41;5006213;28;20041;-57
2022/04/04 09:03:34;;;;;;;20.13;6.82;;;;;;;15.01;42.25;97930.25;5010529;28;20456;-57
2022/04/04 09:06:05;;;;;;;27.10;7.53;;;;;;;15.04;39.48;97932.72;5006394;28;20572;-56
2022/04/04 09:08:44;;;;;;;21.48;7.40;;;;;;;16.00;40.23;97919.78;5005347;28;20026;-56
2022/04/04 09:11:10;;;;;;;24.20;7.55;;;;;;;15.78;39.20;97917.69;5007916;28;20069;-57
2022/04/04 09:13:35;;;;;;;22.45;6.50;;;;;;;15.99;40.41;97909.38;5003948;28;20025;-56
2022/04/04 09:16:03;;;;;;;22.25;6.45;;;;;;;15.15;40.85;97918.09;5004640;28;20029;-55
2022/04/04 09:18:37;;;;;;;21.15;7.45;;;;;;;14.44;39.56;97909.13;5009103;28;20026;-54
2022/04/04 09:21:24;;;;;;;28.55;7.20;;;;;;;15.43;39.93;97910.19;5007099;28;20083;-55
2022/04/04 09:23:49;;;;;;;22.70;7.63;;;;;;;14.76;38.48;97899.41;5007791;28;20048;-55
2022/04/04 09:26:41;;;;;;;24.50;7.67;;;;;;;14.55;38.42;97908.50;5006615;28;20038;-55
2022/04/04 09:29:06;;;;;;;23.05;6.68;;;;;;;15.27;41.67;97898.09;5006933;28;20750;-57
2022/04/04 09:31:31;;;;;;;28.00;6.78;;;;;;;12.95;46.50;97902.41;5012065;28;20049;-57
2022/04/04 09:34:02;;;;;;;22.15;6.65;;;;;;;12.77;42.56;97898.97;5004119;28;20103;-55
2022/04/04 09:36:28;;;;;;;27.23;6.72;;;;;;;13.13;44.47;97890.13;5008433;28;20037;-56
2022/04/04 09:39:14;;;;;;;25.23;6.75;;;;;;;13.08;40.96;97882.50;5006447;28;20622;-57
2022/04/04 09:41:40;;;;;;;21.80;5.95;;;;;;;13.22;40.23;97878.31;5010712;28;20029;-57
2022/04/04 09:44:08;;;;;;;24.85;6.95;;;;;;;13.05;40.65;97871.34;5007850;28;20112;-55
2022/04/04 09:46:39;;;;;;;25.27;7.18;;;;;;;12.54;42.78;97874.84;5001557;28;20463;-57
2022/04/04 09:49:14;;;;;;;23.23;6.25;;;;;;;12.50;43.50;97857.63;5006541;28;20057;-58
2022/04/04 09:51:51;;;;;;;26.08;6.40;;;;;;;12.39;44.84;97873.00;5007488;28;20042;-55
2022/04/04 09:54:23;;;;;;;24.80;6.53;;;;;;;12.46;40.88;97866.53;5008367;28;20022;-56
2022/04/04 09:56:53;;;;;;;27.83;6.35;;;;;;;12.92;42.72;97861.56;5005812;28;20500;-55
2022/04/04 09:59:19;;;;;;;16.92;5.00;;;;;;;13.85;45.95;97857.38;5005782;28;20101;-55
2022/04/04 10:01:46;;;;;;;20.35;5.60;;;;;;;13.11;42.81;97857.94;5005152;28;20054;-55
2022/04/04 10:04:12;;;;;;;22.60;5.68;;;;;;;12.75;47.04;97853.72;5004566;28;20181;-56
2022/04/04 10:06:42;;;;;;;29.00;6.13;;;;;;;11.92;56.97;97848.28;5007341;28;20119;-57
2022/04/04 10:09:08;;;;;;;27.42;5.88;;;;;;;11.99;43.32;97848.00;5005292;28;20400;-56
2022/04/04 10:11:36;;;;;;;25.73;5.05;;;;;;;12.78;51.62;97843.09;5006153;28;20552;-56
2022/04/04 10:14:02;;;;;;;25.00;5.47;;;;;;;12.49;47.78;97836.75;5003913;28;20088;-56
2022/04/04 10:16:30;;;;;;;29.60;6.38;;;;;;;11.67;40.92;97834.69;5000046;28;20389;-56
2022/04/04 10:18:57;;;;;;;26.17;5.70;;;;;;;10.68;42.78;97836.59;5001273;28;20065;-56
2022/04/04 10:21:23;;;;;;;23.13;5.93;;;;;;;11.53;48.58;97827.53;5002398;28;20038;-55
2022/04/04 10:23:52;;;;;;;31.23;6.68;;;;;;;10.56;44.69;97826.69;5008383;28;20031;-55
2022/04/04 10:26:20;;;;;;;28.65;6.50;;;;;;;10.72;47.55;97830.31;5003701;28;20088;-55
2022/04/04 10:28:47;;;;;;;23.67;5.82;;;;;;;11.64;42.66;97819.16;5000254;28;20042;-58
2022/04/04 10:31:19;;;;;;;24.23;6.15;;;;;;;11.48;42.49;97817.28;5006020;28;20088;-57
2022/04/04 10:33:46;;;;;;;;;;;;;;;12.24;44.89;97816.22;5004937;28;20578;-58
2022/04/04 10:36:16;;;;;;;29.75;6.20;;;;;;;12.59;39.84;97796.13;5003223;28;20028;-56
2022/04/04 10:38:57;;;;;;;24.83;5.40;;;;;;;12.75;39.22;97796.13;5007490;28;20037;-56
2022/04/04 10:41:26;;;;;;;29.48;6.30;;;;;;;11.62;38.26;97785.28;5005587;28;20716;-57
2022/04/04 10:43:53;;;;;;;25.17;5.45;;;;;;;13.30;44.54;97784.44;5006645;28;20812;-57
2022/04/04 10:46:20;;;;;;;24.90;6.00;;;;;;;13.67;41.36;97790.28;5007118;28;20850;-55
2022/04/04 10:48:51;;;;;;;25.40;5.50;;;;;;;12.82;38.34;97775.72;5006625;28;20113;-55
2022/04/04 10:51:19;;;;;;;28.75;6.10;;;;;;;13.79;44.34;97775.63;5007172;28;20148;-57
2022/04/04 10:53:47;;;;;;;28.23;5.40;;;;;;;11.61;43.81;97770.50;5003054;28;20033;-55
2022/04/04 10:56:24;;;;;;;26.35;5.53;;;;;;;11.50;45.89;97770.19;5002605;28;20546;-55
2022/04/04 10:58:51;;;;;;;30.55;6.30;;;;;;;11.79;48.07;97753.09;5005929;28;20030;-56
2022/04/04 11:01:20;;;;;;;24.70;5.45;;;;;;;12.82;48.84;97763.47;5005069;28;20100;-54
2022/04/04 11:03:52;;;;;;;23.17;4.97;;;;;;;14.48;54.99;97749.72;5007687;28;20455;-57
2022/04/04 11:09:18;;;;;;;20.00;3.90;;;;;;;18.10;59.00;97739.22;5001694;28;20138;-55
2022/04/04 11:11:54;;;;;;;24.00;4.18;;;;;;;18.64;64.73;97743.84;5003143;28;20038;-55
2022/04/04 11:14:36;;;;;;;26.08;4.85;;;;;;;16.16;63.99;97737.25;5005333;28;20041;-56
2022/04/04 11:17:08;;;;;;;20.90;4.95;;;;;;;15.52;58.16;97732.66;5005523;28;20046;-55
2022/04/04 11:19:46;;;;;;;28.73;4.80;;;;;;;17.37;57.26;97730.53;5006027;28;20034;-56
2022/04/04 11:22:21;;;;;;;24.23;4.53;;;;;;;16.25;59.86;97736.63;5003951;28;20026;-56
2022/04/04 11:25:16;;;;;;;26.90;4.93;;;;;;;14.83;47.10;97724.81;5001974;28;20036;-56
2022/04/04 11:27:47;;;;;;;24.67;5.07;;;;;;;14.59;58.73;97716.69;4983231;28;20050;-56